createdAt,value
2018-04-18T00:02:06.233Z,14.07
2018-04-18T00:04:40.530Z,15.00
2018-04-18T00:07:12.428Z,6.50
2018-04-18T00:09:42.651Z,13.13
2018-04-18T00:12:12.872Z,12.47
2018-04-18T00:14:44.016Z,7.93
2018-04-18T00:17:15.159Z,6.47
2018-04-18T00:19:47.217Z,13.57
2018-04-18T00:22:17.146Z,9.20
2018-04-18T00:24:47.363Z,7.83
2018-04-18T00:27:18.201Z,8.13
2018-04-18T00:29:47.955Z,12.97
2018-04-18T00:32:17.430Z,13.63
2018-04-18T00:34:47.607Z,7.37
2018-04-18T00:37:17.175Z,9.27
2018-04-18T00:39:46.590Z,8.33
2018-04-18T00:42:15.990Z,6.67
2018-04-18T00:44:45.378Z,8.50
2018-04-18T00:47:14.830Z,15.53
2018-04-18T00:49:44.181Z,11.80
2018-04-18T00:52:13.771Z,6.50
2018-04-18T00:54:46.971Z,5.63
2018-04-18T00:57:18.070Z,10.27
2018-04-18T00:59:49.257Z,7.87
2018-04-18T01:02:18.893Z,18.20
2018-04-18T01:04:52.015Z,10.17
2018-04-18T01:10:42.720Z,10.47
2018-04-18T01:13:12.888Z,8.43
2018-04-18T01:15:46.338Z,9.13
2018-04-18T01:18:18.578Z,12.30
2018-04-18T01:20:53.146Z,9.53
2018-04-18T01:23:23.639Z,7.33
2018-04-18T01:25:52.946Z,9.90
2018-04-18T01:28:22.410Z,13.47
2018-04-18T01:31:09.671Z,5.47
2018-04-18T01:33:39.531Z,9.53
2018-04-18T01:38:44.902Z,10.70
2018-04-18T01:41:14.325Z,9.67
2018-04-18T01:43:43.757Z,9.50
2018-04-18T01:46:13.019Z,8.60
2018-04-18T01:48:42.655Z,8.20
2018-04-18T01:51:11.972Z,10.43
2018-04-18T01:53:44.383Z,9.37
2018-04-18T01:56:14.667Z,10.33
2018-04-18T01:58:44.079Z,16.63
2018-04-18T02:01:13.458Z,17.97
2018-04-18T02:03:42.738Z,7.67
2018-04-18T02:06:12.895Z,6.20
2018-04-18T02:08:42.385Z,6.17
2018-04-18T02:11:11.721Z,5.30
2018-04-18T02:13:42.020Z,9.23
2018-04-18T02:16:11.405Z,7.53
2018-04-18T02:18:41.081Z,6.43
2018-04-18T02:21:15.190Z,13.43
2018-04-18T02:23:45.797Z,8.90
2018-04-18T02:26:15.220Z,5.23
2018-04-18T02:28:52.159Z,11.73
2018-04-18T02:31:22.041Z,11.67
2018-04-18T02:33:53.215Z,14.77
2018-04-18T02:36:23.540Z,12.80
2018-04-18T02:38:53.947Z,16.13
2018-04-18T02:41:23.457Z,16.10
2018-04-18T02:43:53.790Z,12.67
2018-04-18T02:46:27.981Z,17.33
2018-04-18T02:49:41.410Z,21.73
2018-04-18T02:52:12.190Z,21.77
2018-04-18T02:58:12.920Z,14.63
2018-04-18T03:00:42.730Z,13.60
2018-04-18T03:03:12.347Z,14.37
2018-04-18T03:05:41.807Z,13.87
2018-04-18T03:08:11.174Z,18.00
2018-04-18T03:11:18.857Z,20.63
2018-04-18T03:13:48.308Z,21.73
2018-04-18T03:16:17.644Z,20.73
2018-04-18T03:18:47.840Z,20.60
2018-04-18T03:21:20.168Z,17.37
2018-04-18T03:23:54.724Z,17.57
2018-04-18T03:26:25.623Z,15.43
2018-04-18T03:28:57.281Z,13.23
2018-04-18T03:31:29.297Z,19.10
2018-04-18T03:33:58.996Z,18.00
2018-04-18T03:36:28.768Z,19.37
2018-04-18T03:38:58.129Z,12.30
2018-04-18T03:41:27.429Z,13.90
2018-04-18T03:43:57.615Z,9.93
2018-04-18T03:46:26.990Z,12.10
2018-04-18T03:48:57.553Z,12.73
2018-04-18T03:51:28.497Z,15.33
2018-04-18T03:53:57.887Z,18.13
2018-04-18T03:56:27.157Z,12.83
2018-04-18T03:58:57.161Z,13.30
2018-04-18T04:01:26.418Z,17.57
2018-04-18T04:03:55.736Z,13.67
2018-04-18T04:06:25.184Z,17.40
2018-04-18T04:08:55.236Z,10.50
2018-04-18T04:11:24.544Z,11.83
2018-04-18T04:13:54.632Z,15.03
2018-04-18T04:16:35.097Z,13.57
2018-04-18T04:19:15.630Z,13.80
2018-04-18T04:21:57.239Z,17.97
2018-04-18T04:24:39.508Z,18.97
2018-04-18T04:27:09.389Z,29.33
2018-04-18T04:29:38.841Z,26.00
2018-04-18T04:32:08.124Z,22.90
2018-04-18T04:34:48.514Z,22.50
2018-04-18T04:37:18.325Z,23.27
2018-04-18T04:39:47.682Z,25.63
2018-04-18T04:42:17.052Z,25.90
2018-04-18T04:44:46.392Z,25.90
2018-04-18T04:47:15.789Z,27.67
2018-04-18T04:49:45.161Z,22.73
2018-04-18T04:52:14.607Z,26.60
2018-04-18T04:54:44.055Z,18.10
2018-04-18T04:57:13.315Z,27.33
2018-04-18T04:59:42.641Z,26.50
2018-04-18T05:02:12.847Z,23.57
2018-04-18T05:04:42.111Z,23.23
2018-04-18T05:07:11.669Z,19.97
2018-04-18T05:09:41.814Z,17.67
2018-04-18T05:12:11.185Z,20.43
2018-04-18T05:14:41.263Z,20.00
2018-04-18T05:17:10.698Z,16.63
2018-04-18T05:19:41.439Z,23.30
2018-04-18T05:25:42.816Z,18.00
2018-04-18T05:28:12.127Z,38.63
2018-04-18T05:30:41.654Z,25.47
2018-04-18T05:33:11.464Z,24.27
2018-04-18T05:35:40.789Z,18.30
2018-04-18T05:38:10.313Z,26.80
2018-04-18T05:40:40.949Z,17.43
2018-04-18T05:43:10.317Z,15.67
2018-04-18T05:45:39.579Z,15.17
2018-04-18T05:48:09.857Z,12.07
2018-04-18T05:50:39.157Z,22.00
2018-04-18T05:53:08.745Z,23.40
2018-04-18T05:55:38.018Z,16.57
2018-04-18T05:58:07.475Z,12.70
2018-04-18T06:00:37.536Z,10.03
2018-04-18T06:03:06.970Z,19.43
2018-04-18T06:05:36.346Z,11.13
2018-04-18T06:08:05.829Z,10.10
2018-04-18T06:10:35.206Z,10.17
2018-04-18T06:13:06.022Z,9.30
2018-04-18T06:15:36.182Z,11.60
2018-04-18T06:18:05.488Z,11.30
2018-04-18T06:20:34.994Z,14.50
2018-04-18T06:23:04.257Z,14.67
2018-04-18T06:25:33.651Z,12.70
2018-04-18T06:28:02.961Z,15.20
2018-04-18T06:30:32.308Z,15.83
2018-04-18T06:33:01.570Z,13.03
2018-04-18T06:35:30.992Z,9.30
2018-04-18T06:38:00.260Z,8.30
2018-04-18T06:40:29.776Z,10.83
2018-04-18T06:42:59.089Z,10.47
2018-04-18T06:45:28.456Z,8.53
2018-04-18T06:47:57.712Z,10.30
2018-04-18T06:50:27.903Z,12.27
2018-04-18T06:52:57.185Z,14.37
2018-04-18T06:55:26.541Z,10.97
2018-04-18T06:57:56.642Z,9.23
2018-04-18T07:00:25.995Z,9.70
2018-04-18T07:02:55.262Z,14.80
2018-04-18T07:05:24.680Z,9.83
2018-04-18T07:07:53.938Z,9.67
2018-04-18T07:10:24.548Z,12.50
2018-04-18T07:12:54.004Z,14.63
2018-04-18T07:15:23.321Z,12.27
2018-04-18T07:17:52.684Z,18.17
2018-04-18T07:20:22.061Z,16.07
2018-04-18T07:22:51.325Z,15.03
2018-04-18T07:25:20.677Z,12.90
2018-04-18T07:27:49.982Z,13.87
2018-04-18T07:30:19.510Z,13.50
2018-04-18T07:32:48.780Z,15.90
2018-04-18T07:35:18.353Z,15.20
2018-04-18T07:37:47.606Z,12.30
2018-04-18T07:40:16.970Z,19.47
2018-04-18T07:46:18.031Z,16.37
2018-04-18T07:48:48.074Z,20.07
2018-04-18T07:51:17.400Z,26.90
2018-04-18T07:53:46.830Z,21.70
2018-04-18T07:56:16.109Z,26.13
2018-04-18T07:58:45.477Z,28.53
2018-04-18T08:01:14.869Z,22.03
2018-04-18T08:03:44.896Z,21.57
2018-04-18T08:06:14.268Z,30.97
2018-04-18T08:08:43.688Z,25.17
2018-04-18T08:11:13.076Z,16.00
2018-04-18T08:13:42.348Z,20.63
2018-04-18T08:16:11.772Z,22.53
2018-04-18T08:18:41.037Z,21.03
2018-04-18T08:21:13.448Z,29.40
2018-04-18T08:27:04.253Z,19.97
2018-04-18T08:29:33.634Z,20.03
2018-04-18T08:32:03.033Z,23.37
2018-04-18T08:34:32.495Z,23.03
2018-04-18T08:37:01.912Z,27.80
2018-04-18T08:43:02.150Z,23.33
2018-04-18T08:45:31.561Z,30.77
2018-04-18T08:48:01.021Z,28.87
2018-04-18T08:50:31.905Z,23.73
2018-04-18T08:53:01.403Z,26.57
2018-04-18T08:55:30.919Z,26.27
2018-04-18T08:58:00.382Z,24.67
2018-04-18T09:00:29.963Z,20.93
2018-04-18T09:02:59.507Z,22.07
2018-04-18T09:08:50.453Z,24.70
2018-04-18T09:11:19.874Z,18.67
2018-04-18T09:13:50.192Z,15.70
2018-04-18T09:16:19.664Z,22.40
2018-04-18T09:18:49.069Z,22.37
2018-04-18T09:24:47.049Z,19.77
2018-04-18T09:27:16.484Z,16.50
2018-04-18T09:29:45.892Z,17.90
2018-04-18T09:32:15.365Z,18.07
2018-04-18T09:34:44.807Z,17.30
2018-04-18T09:37:14.397Z,19.60
2018-04-18T09:39:43.905Z,17.53
2018-04-18T09:42:13.315Z,21.23
2018-04-18T09:44:42.746Z,17.40
2018-04-18T09:47:12.267Z,25.87
2018-04-18T09:49:41.719Z,21.97
2018-04-18T09:52:11.152Z,21.37
2018-04-18T09:54:40.649Z,16.80
2018-04-18T09:57:10.065Z,23.60
2018-04-18T09:59:39.481Z,22.83
2018-04-18T10:02:14.158Z,21.97
2018-04-18T10:04:45.651Z,19.30
2018-04-18T10:07:16.017Z,24.07
2018-04-18T10:09:46.223Z,22.63
2018-04-18T10:12:16.810Z,27.10
2018-04-18T10:14:46.465Z,29.60
2018-04-18T10:17:15.902Z,23.03
2018-04-18T10:19:45.331Z,21.57
2018-04-18T10:22:14.772Z,20.90
2018-04-18T10:24:44.257Z,18.50
2018-04-18T10:27:13.679Z,19.07
2018-04-18T10:29:45.844Z,21.43
2018-04-18T10:32:20.001Z,21.07
2018-04-18T10:34:50.979Z,22.83
2018-04-18T10:37:21.855Z,22.73
2018-04-18T10:39:51.327Z,21.63
2018-04-18T10:42:23.594Z,23.77
2018-04-18T10:44:54.048Z,29.23
2018-04-18T10:47:24.366Z,31.30
2018-04-18T10:49:53.916Z,31.87
2018-04-18T10:52:24.574Z,34.37
2018-04-18T10:54:55.006Z,28.70
2018-04-18T10:57:25.309Z,30.60
2018-04-18T10:59:55.089Z,20.53
2018-04-18T11:02:24.518Z,20.30
2018-04-18T11:04:53.941Z,19.20
2018-04-18T11:07:23.454Z,24.67
2018-04-18T11:09:52.850Z,21.87
2018-04-18T11:12:22.253Z,18.80
2018-04-18T11:14:51.793Z,22.20
2018-04-18T11:17:21.205Z,22.37
2018-04-18T11:19:50.626Z,23.37
2018-04-18T11:22:22.828Z,21.27
2018-04-18T11:24:52.968Z,21.60
2018-04-18T11:27:22.488Z,21.77
2018-04-18T11:29:52.926Z,26.87
2018-04-18T11:32:22.384Z,24.33
2018-04-18T11:34:51.876Z,24.90
2018-04-18T11:37:21.504Z,21.53
2018-04-18T11:39:51.010Z,24.60
2018-04-18T11:42:21.313Z,26.43
2018-04-18T11:44:50.863Z,35.87
2018-04-18T11:47:20.308Z,21.20
2018-04-18T11:49:49.900Z,21.03
2018-04-18T11:52:19.349Z,28.13
2018-04-18T11:54:48.784Z,28.30
2018-04-18T11:57:18.217Z,18.27
2018-04-18T12:00:01.562Z,28.93
2018-04-18T12:05:51.360Z,21.47
2018-04-18T12:08:20.528Z,25.20
2018-04-18T12:10:50.657Z,27.20
2018-04-18T12:13:20.115Z,30.57
2018-04-18T12:19:20.808Z,22.70
2018-04-18T12:21:51.763Z,19.83
2018-04-18T12:24:23.921Z,27.67
2018-04-18T12:26:59.469Z,20.43
2018-04-18T12:29:32.241Z,16.60
2018-04-18T12:32:01.953Z,22.73
2018-04-18T12:34:33.140Z,18.30
2018-04-18T12:37:02.779Z,20.03
2018-04-18T12:39:32.326Z,14.97
2018-04-18T12:42:02.015Z,16.97
2018-04-18T12:44:31.669Z,17.07
2018-04-18T12:47:01.296Z,16.37
2018-04-18T12:49:31.581Z,13.37
2018-04-18T12:52:01.092Z,16.47
2018-04-18T12:54:31.179Z,16.67
2018-04-18T12:57:00.746Z,15.90
2018-04-18T12:59:32.549Z,12.43
2018-04-18T13:02:02.164Z,13.13
2018-04-18T13:04:34.740Z,14.13
2018-04-18T13:07:04.417Z,11.20
2018-04-18T13:09:35.457Z,6.80
2018-04-18T13:12:04.891Z,11.23
2018-04-18T13:14:35.224Z,16.10
2018-04-18T13:17:05.173Z,18.57
2018-04-18T13:19:35.731Z,22.47
2018-04-18T13:22:06.603Z,22.83
2018-04-18T13:24:38.755Z,23.87
2018-04-18T13:27:09.099Z,24.13
2018-04-18T13:29:39.665Z,25.90
2018-04-18T13:32:09.237Z,22.70
2018-04-18T13:34:38.688Z,26.93
2018-04-18T13:37:08.189Z,23.73
2018-04-18T13:39:37.672Z,21.13
2018-04-18T13:42:08.141Z,19.23
2018-04-18T13:44:37.650Z,23.47
2018-04-18T13:47:07.205Z,26.43
2018-04-18T13:49:36.656Z,17.53
2018-04-18T13:52:06.420Z,19.70
2018-04-18T13:54:36.011Z,16.10
2018-04-18T13:57:05.480Z,18.70
2018-04-18T13:59:35.324Z,12.30
2018-04-18T14:02:04.919Z,14.77
2018-04-18T14:04:34.472Z,14.43
2018-04-18T14:07:05.206Z,16.57
2018-04-18T14:09:35.539Z,12.60
2018-04-18T14:12:05.179Z,15.07
2018-04-18T14:14:34.657Z,11.27
2018-04-18T14:17:04.261Z,10.03
2018-04-18T14:19:33.799Z,12.77
2018-04-18T14:22:03.355Z,9.90
2018-04-18T14:24:33.299Z,11.17
2018-04-18T14:27:03.348Z,13.03
2018-04-18T14:29:33.487Z,11.00
2018-04-18T14:32:03.150Z,13.17
2018-04-18T14:34:33.634Z,14.87
2018-04-18T14:37:04.043Z,7.93
2018-04-18T14:39:33.655Z,9.70
2018-04-18T14:42:03.296Z,9.60
2018-04-18T14:44:39.330Z,12.73
2018-04-18T14:47:09.173Z,12.03
2018-04-18T14:49:39.490Z,10.07
2018-04-18T14:52:11.771Z,7.47
2018-04-18T14:54:45.539Z,9.37
2018-04-18T14:57:16.999Z,13.33
2018-04-18T14:59:48.097Z,13.17
2018-04-18T15:02:21.621Z,10.33
2018-04-18T15:04:51.219Z,10.40
2018-04-18T15:07:21.290Z,11.07
2018-04-18T15:09:51.004Z,11.47
2018-04-18T15:12:23.557Z,13.07
2018-04-18T15:14:54.623Z,11.13
2018-04-18T15:17:24.297Z,10.40
2018-04-18T15:19:54.678Z,11.07
2018-04-18T15:22:24.282Z,12.23
2018-04-18T15:24:55.267Z,18.63
2018-04-18T15:27:24.939Z,14.07
2018-04-18T15:33:30.617Z,13.90
2018-04-18T15:36:00.967Z,20.57
2018-04-18T15:38:36.000Z,14.18
2018-04-18T15:41:07.510Z,12.80
2018-04-18T15:43:37.530Z,12.53
2018-04-18T15:46:07.191Z,15.83
2018-04-18T15:48:36.633Z,14.65
2018-04-18T15:51:07.357Z,18.67
2018-04-18T15:53:36.979Z,13.23
2018-04-18T15:56:06.570Z,17.42
2018-04-18T15:58:52.814Z,18.42
2018-04-18T16:01:24.484Z,16.60
2018-04-18T16:03:54.024Z,20.55
2018-04-18T16:06:24.697Z,19.62
2018-04-18T16:08:54.170Z,18.02
2018-04-18T16:11:31.918Z,19.23
2018-04-18T16:14:11.147Z,19.55
2018-04-18T16:16:40.757Z,21.30
2018-04-18T16:19:11.042Z,24.10
2018-04-18T16:21:46.816Z,21.37
2018-04-18T16:24:17.246Z,28.03
2018-04-18T16:26:46.632Z,21.85
2018-04-18T16:29:27.995Z,22.00
2018-04-18T16:31:57.314Z,22.92
2018-04-18T16:34:26.694Z,19.03
2018-04-18T16:36:56.860Z,17.87
2018-04-18T16:39:26.247Z,18.43
2018-04-18T16:45:17.335Z,15.95
2018-04-18T16:47:46.809Z,17.90
2018-04-18T16:50:16.386Z,14.48
2018-04-18T16:52:46.354Z,21.83
2018-04-18T16:55:16.417Z,17.77
2018-04-18T16:57:49.775Z,16.07
2018-04-18T17:00:19.915Z,15.73
2018-04-18T17:02:50.059Z,20.23
2018-04-18T17:05:19.537Z,14.37
2018-04-18T17:07:49.180Z,14.68
2018-04-18T17:10:18.782Z,15.52
2018-04-18T17:12:48.373Z,13.02
2018-04-18T17:15:22.419Z,20.80
2018-04-18T17:20:30.862Z,13.40
2018-04-18T17:23:06.632Z,12.80
2018-04-18T17:25:40.724Z,13.43
2018-04-18T17:28:13.109Z,14.18
2018-04-18T17:30:42.633Z,16.10
2018-04-18T17:33:12.831Z,10.98
2018-04-18T17:35:46.773Z,29.25
2018-04-18T17:38:23.046Z,17.02
2018-04-18T17:40:56.109Z,14.30
2018-04-18T17:43:30.536Z,9.05
2018-04-18T17:46:06.113Z,12.52
2018-04-18T17:48:37.679Z,25.02
2018-04-18T17:51:09.130Z,21.55
2018-04-18T17:53:40.131Z,14.13
2018-04-18T17:56:10.770Z,11.63
2018-04-18T17:58:40.185Z,14.25
2018-04-18T18:01:10.216Z,21.48
2018-04-18T18:03:41.351Z,24.65
2018-04-18T18:06:11.935Z,16.75
2018-04-18T18:08:55.444Z,13.95
2018-04-18T18:11:25.135Z,13.48
2018-04-18T18:13:55.320Z,16.23
2018-04-18T18:16:32.901Z,17.20
2018-04-18T18:19:05.536Z,15.73
2018-04-18T18:24:22.973Z,12.13
2018-04-18T18:26:55.278Z,14.85
2018-04-18T18:29:24.890Z,15.07
2018-04-18T18:32:05.470Z,17.58
2018-04-18T18:34:36.421Z,20.10
2018-04-18T18:37:06.011Z,19.95
2018-04-18T18:39:36.375Z,17.27
2018-04-18T18:42:05.888Z,16.10
2018-04-18T18:44:35.375Z,14.02
2018-04-18T18:47:06.137Z,18.83
2018-04-18T18:49:35.798Z,16.85
2018-04-18T18:52:05.261Z,17.12
2018-04-18T18:58:08.135Z,20.35
2018-04-18T19:00:38.939Z,12.85
2018-04-18T19:03:17.236Z,14.55
2018-04-18T19:05:58.709Z,30.10
2018-04-18T19:08:28.868Z,19.85
2018-04-18T19:10:58.583Z,17.83
2018-04-18T19:13:29.396Z,23.42
2018-04-18T19:15:59.441Z,27.23
2018-04-18T19:18:32.254Z,18.37
2018-04-18T19:21:01.609Z,18.27
2018-04-18T19:23:33.656Z,18.55
2018-04-18T19:26:06.489Z,16.92
2018-04-18T19:35:19.548Z,13.23
2018-04-18T19:37:49.055Z,18.02
2018-04-18T19:40:18.644Z,20.25
2018-04-18T19:42:48.810Z,22.10
2018-04-18T19:45:18.522Z,18.83
2018-04-18T19:47:52.719Z,15.60
2018-04-18T19:50:25.851Z,21.05
2018-04-18T19:52:59.662Z,22.65
2018-04-18T19:55:32.701Z,16.65
2018-04-18T19:58:02.338Z,14.68
2018-04-18T20:00:32.399Z,17.15
2018-04-18T20:03:05.253Z,23.97
2018-04-18T20:09:10.279Z,33.27
2018-04-18T20:11:40.075Z,26.53
2018-04-18T20:14:10.394Z,22.93
2018-04-18T20:16:39.973Z,29.50
2018-04-18T20:19:11.725Z,40.00
2018-04-18T20:21:41.608Z,27.93
2018-04-18T20:24:11.089Z,31.83
2018-04-18T20:26:40.649Z,25.27
2018-04-18T20:29:10.147Z,23.97
2018-04-18T20:31:39.858Z,28.00
2018-04-18T20:34:16.514Z,37.87
2018-04-18T20:36:53.830Z,30.73
2018-04-18T20:39:24.090Z,25.53
2018-04-18T20:41:56.965Z,26.40
2018-04-18T20:44:27.112Z,25.05
2018-04-18T20:47:01.277Z,28.80
2018-04-18T20:49:34.075Z,24.00
2018-04-18T20:52:06.277Z,32.73
2018-04-18T20:54:38.326Z,29.03
2018-04-18T20:59:48.295Z,21.50
2018-04-18T21:02:18.665Z,25.23
2018-04-18T21:04:48.383Z,29.57
2018-04-18T21:10:49.927Z,39.57
2018-04-18T21:13:19.233Z,34.20
2018-04-18T21:15:48.485Z,34.43
2018-04-18T21:18:17.836Z,31.43
2018-04-18T21:20:47.123Z,49.03
2018-04-18T21:23:16.532Z,30.23
2018-04-18T21:25:45.918Z,35.20
2018-04-18T21:28:15.218Z,33.13
2018-04-18T21:30:44.472Z,34.17
2018-04-18T21:36:36.758Z,31.17
2018-04-18T21:39:06.680Z,53.53
2018-04-18T21:41:37.781Z,35.30
2018-04-18T21:44:07.980Z,28.03
2018-04-18T21:46:38.340Z,30.90
2018-04-18T21:49:08.025Z,35.13
2018-04-18T21:51:38.306Z,49.37
2018-04-18T21:54:08.794Z,67.87
2018-04-18T21:56:38.469Z,74.57
2018-04-18T21:59:08.806Z,83.77
2018-04-18T22:01:39.415Z,109.90
2018-04-18T22:04:09.096Z,50.80
2018-04-18T22:06:38.804Z,49.73
2018-04-18T22:09:08.626Z,69.77
2018-04-18T22:11:38.237Z,70.00
2018-04-18T22:14:07.913Z,103.07
2018-04-18T22:16:37.529Z,59.47
2018-04-18T22:19:11.784Z,39.70
2018-04-18T22:21:41.524Z,37.73
2018-04-18T22:24:12.713Z,38.07
2018-04-18T22:29:24.098Z,45.83
2018-04-18T22:31:59.976Z,40.53
2018-04-18T22:34:34.309Z,36.67
2018-04-18T22:37:03.964Z,43.87
2018-04-18T22:39:33.588Z,56.13
2018-04-18T22:42:03.207Z,51.47
2018-04-18T22:44:32.867Z,48.57
2018-04-18T22:47:02.509Z,38.23
2018-04-18T22:49:32.155Z,36.33
2018-04-18T22:52:01.757Z,37.93
2018-04-18T22:54:31.339Z,43.83
2018-04-18T22:57:01.146Z,38.37
2018-04-18T22:59:30.733Z,42.67
2018-04-18T23:02:02.209Z,48.40
2018-04-18T23:04:31.831Z,49.23
2018-04-18T23:07:01.538Z,47.73
2018-04-18T23:09:31.124Z,60.97
2018-04-18T23:12:00.751Z,80.07
2018-04-18T23:14:30.417Z,57.83
2018-04-18T23:17:00.045Z,61.10
2018-04-18T23:19:29.647Z,61.03
2018-04-18T23:21:59.313Z,165.70
2018-04-18T23:24:29.129Z,120.80
2018-04-18T23:26:58.750Z,83.83
2018-04-18T23:29:28.443Z,181.50
2018-04-18T23:31:58.111Z,116.40
2018-04-18T23:34:28.387Z,174.13
2018-04-18T23:36:58.099Z,79.83
2018-04-18T23:39:28.389Z,71.70
2018-04-18T23:41:58.147Z,79.03
2018-04-18T23:44:27.882Z,74.20
2018-04-18T23:46:57.780Z,83.63
2018-04-18T23:49:29.135Z,62.50
2018-04-18T23:51:58.880Z,66.13
2018-04-18T23:55:08.277Z,64.63
2018-04-18T23:57:42.532Z,61.33
